Time;durP1;ratioP1;P1;durP2;ratioP2;P2;SDS_P1;SDS_P2;PMS_P1;PMS_P2;Temp;Humidity;BMP_temperature;BMP_pressure;BME280_temperature;BME280_humidity;BME280_pressure;Samples;Min_cycle;Max_cycle;Signal;HPM_P1;HPM_P2
2021/07/10 00:00:17;;;;;;;5.82;5.22;;;24.80;84.10;;;;;;5096778;28;20028;-79
2021/07/10 00:02:43;;;;;;;6.60;5.18;;;24.70;84.20;;;;;;5096725;28;20424;-79
2021/07/10 00:05:13;;;;;;;6.90;5.30;;;24.70;84.30;;;;;;5096955;28;20024;-79
2021/07/10 00:07:39;;;;;;;7.18;5.40;;;24.60;84.50;;;;;;5096594;28;20073;-79
2021/07/10 00:10:11;;;;;;;5.68;5.07;;;24.50;84.70;;;;;;5095207;28;20390;-79
2021/07/10 00:12:38;;;;;;;7.30;5.43;;;24.40;85.00;;;;;;5096021;28;20107;-78
2021/07/10 00:15:06;;;;;;;6.72;5.10;;;24.30;85.30;;;;;;5095220;28;20492;-78
2021/07/10 00:17:32;;;;;;;7.38;5.40;;;24.30;85.60;;;;;;5096247;28;20024;-78
2021/07/10 00:19:58;;;;;;;6.40;5.38;;;24.30;86.10;;;;;;5095115;28;20020;-78
2021/07/10 00:22:23;;;;;;;8.35;5.70;;;24.20;86.10;;;;;;5095081;28;20472;-78
2021/07/10 00:24:49;;;;;;;6.82;5.45;;;24.20;86.30;;;;;;5095051;28;20032;-78
2021/07/10 00:27:14;;;;;;;6.07;5.30;;;24.10;86.50;;;;;;5081962;28;20064;-78
2021/07/10 00:29:40;;;;;;;8.10;5.72;;;24.10;86.60;;;;;;5074594;28;20386;-78
2021/07/10 00:32:06;;;;;;;7.97;5.50;;;24.10;86.70;;;;;;5075992;28;20058;-78
2021/07/10 00:34:32;;;;;;;6.90;5.70;;;24.00;86.80;;;;;;5076231;28;20025;-78
2021/07/10 00:36:57;;;;;;;6.65;5.72;;;24.00;86.90;;;;;;5074432;28;20025;-78
2021/07/10 00:39:23;;;;;;;6.43;5.78;;;24.00;87.10;;;;;;5085099;28;20424;-78
2021/07/10 00:41:49;;;;;;;6.70;5.85;;;24.00;87.20;;;;;;5096226;28;20070;-78
2021/07/10 00:44:14;;;;;;;6.70;5.25;;;23.90;87.40;;;;;;5094710;28;20056;-78
2021/07/10 00:46:40;;;;;;;9.65;6.28;;;23.90;87.60;;;;;;5095586;28;20028;-78
2021/07/10 00:49:05;;;;;;;6.80;5.45;;;23.90;87.60;;;;;;5089686;28;20110;-78
2021/07/10 00:51:31;;;;;;;6.28;5.57;;;23.90;87.70;;;;;;5074328;28;20052;-79
2021/07/10 00:53:57;;;;;;;7.30;5.85;;;23.80;87.90;;;;;;5074178;28;20050;-79
2021/07/10 00:56:23;;;;;;;8.60;5.63;;;23.70;88.20;;;;;;5075727;28;20027;-82
2021/07/10 00:58:50;;;;;;;7.55;5.70;;;23.60;88.40;;;;;;5076375;28;20408;-80
2021/07/10 01:01:16;;;;;;;7.90;5.72;;;23.60;88.80;;;;;;5094233;28;20028;-80
2021/07/10 01:03:46;;;;;;;9.73;5.60;;;23.60;89.00;;;;;;5095820;28;20099;-78
2021/07/10 01:06:13;;;;;;;8.95;6.25;;;23.60;89.10;;;;;;5095466;28;20527;-77
2021/07/10 01:08:38;;;;;;;8.07;5.70;;;23.60;89.20;;;;;;5094441;28;20028;-78
2021/07/10 01:11:05;;;;;;;10.77;6.00;;;23.60;89.30;;;;;;5095080;28;20024;-78
2021/07/10 01:13:31;;;;;;;8.15;6.35;;;23.50;89.40;;;;;;5095812;28;20032;-78
2021/07/10 01:15:57;;;;;;;6.30;5.70;;;23.50;89.60;;;;;;5095302;28;20020;-78
2021/07/10 01:18:23;;;;;;;7.07;5.93;;;23.40;89.80;;;;;;5095507;28;20028;-78
2021/07/10 01:20:51;;;;;;;7.32;6.40;;;23.40;90.00;;;;;;5093967;28;20027;-78
2021/07/10 01:23:17;;;;;;;8.23;5.85;;;23.50;90.10;;;;;;5095135;28;20070;-78
2021/07/10 01:25:44;;;;;;;8.57;5.90;;;23.40;90.00;;;;;;5095369;28;20107;-78
2021/07/10 01:28:10;;;;;;;7.72;5.68;;;23.40;90.10;;;;;;5095069;28;20016;-78
2021/07/10 01:30:38;;;;;;;9.88;6.32;;;23.40;90.20;;;;;;5094859;28;20060;-78
2021/07/10 01:33:05;;;;;;;9.30;6.35;;;23.40;90.30;;;;;;5094999;28;20095;-79
2021/07/10 01:35:31;;;;;;;9.43;6.20;;;23.30;90.30;;;;;;5094912;28;20099;-79
2021/07/10 01:37:58;;;;;;;8.13;6.30;;;23.30;90.40;;;;;;5094854;28;20020;-79
2021/07/10 01:40:25;;;;;;;8.70;6.07;;;23.30;90.40;;;;;;5086924;28;20020;-79
2021/07/10 01:42:51;;;;;;;9.75;6.63;;;23.20;90.50;;;;;;5073296;28;20543;-79
2021/07/10 01:45:20;;;;;;;8.13;6.63;;;23.20;90.50;;;;;;5074473;28;20480;-79
2021/07/10 01:47:47;;;;;;;7.10;6.28;;;23.10;90.50;;;;;;5074349;28;20028;-79
2021/07/10 01:50:13;;;;;;;10.73;6.65;;;23.10;90.60;;;;;;5074255;28;20052;-79
2021/07/10 01:52:41;;;;;;;8.60;6.90;;;23.10;90.60;;;;;;5074649;28;20355;-79
2021/07/10 01:55:09;;;;;;;7.68;6.13;;;23.00;90.70;;;;;;5072922;28;20028;-79
2021/07/10 01:57:35;;;;;;;7.20;6.50;;;23.00;90.70;;;;;;5074257;28;20386;-79
2021/07/10 02:00:10;;;;;;;8.05;6.60;;;22.90;90.90;;;;;;5074328;28;20024;-79
2021/07/10 02:02:36;;;;;;;8.30;6.65;;;22.90;91.00;;;;;;5089639;28;20028;-78
2021/07/10 02:05:02;;;;;;;6.97;6.28;;;22.90;91.00;;;;;;5094317;28;20095;-79
2021/07/10 02:07:28;;;;;;;9.93;6.78;;;22.80;91.00;;;;;;5094724;28;20463;-79
2021/07/10 02:09:54;;;;;;;7.03;6.32;;;22.70;91.20;;;;;;5094567;28;20111;-78
2021/07/10 02:12:19;;;;;;;6.95;6.30;;;22.70;91.30;;;;;;5093457;28;20023;-78
2021/07/10 02:14:45;;;;;;;8.57;7.40;;;22.60;91.40;;;;;;5093022;28;20020;-79
2021/07/10 02:17:11;;;;;;;8.15;7.28;;;22.60;91.40;;;;;;5094268;28;20044;-79
2021/07/10 02:19:36;;;;;;;9.13;6.93;;;22.60;91.50;;;;;;5094395;28;20016;-78
2021/07/10 02:22:05;;;;;;;7.30;6.47;;;22.60;91.60;;;;;;5094649;28;20035;-78
2021/07/10 02:24:30;;;;;;;8.25;7.22;;;22.60;91.60;;;;;;5094065;28;20027;-79
2021/07/10 02:26:56;;;;;;;7.70;6.90;;;22.60;91.70;;;;;;5094335;28;20107;-78
2021/07/10 02:29:22;;;;;;;7.35;6.65;;;22.60;91.80;;;;;;5092719;28;20028;-78
2021/07/10 02:31:48;;;;;;;8.10;6.97;;;22.60;91.80;;;;;;5093707;28;20382;-78
2021/07/10 02:34:13;;;;;;;8.30;7.20;;;22.60;91.90;;;;;;5093957;28;20095;-78
2021/07/10 02:36:39;;;;;;;8.15;7.28;;;22.60;91.90;;;;;;5094165;28;20466;-78
2021/07/10 02:39:05;;;;;;;8.23;7.30;;;22.50;92.00;;;;;;5092622;28;20476;-78
2021/07/10 02:41:32;;;;;;;8.55;7.38;;;22.50;92.10;;;;;;5084556;28;20433;-78
2021/07/10 02:43:57;;;;;;;8.02;7.03;;;22.50;92.20;;;;;;5073717;28;20024;-78
2021/07/10 02:46:23;;;;;;;9.85;7.45;;;22.50;92.30;;;;;;5073620;28;20463;-78
2021/07/10 02:48:49;;;;;;;9.57;7.32;;;22.50;92.40;;;;;;5071978;28;20498;-78
2021/07/10 02:51:15;;;;;;;8.82;7.35;;;22.50;92.50;;;;;;5077852;28;20032;-78
2021/07/10 02:53:42;;;;;;;8.85;6.85;;;22.50;92.60;;;;;;5093746;28;20359;-78
2021/07/10 02:56:08;;;;;;;9.55;8.40;;;22.60;92.70;;;;;;5092505;28;20020;-78
2021/07/10 02:58:33;;;;;;;8.40;7.50;;;22.60;92.80;;;;;;5093944;28;20074;-78
2021/07/10 03:00:59;;;;;;;10.45;7.05;;;22.60;92.90;;;;;;5093630;28;20432;-78
2021/07/10 03:03:25;;;;;;;8.73;7.05;;;22.70;92.80;;;;;;5093640;28;20107;-78
2021/07/10 03:05:51;;;;;;;8.95;7.47;;;22.80;92.90;;;;;;5093623;28;20060;-78
2021/07/10 03:08:20;;;;;;;7.90;7.10;;;22.90;93.00;;;;;;5092921;28;20106;-78
2021/07/10 03:10:47;;;;;;;8.43;7.10;;;22.90;93.20;;;;;;5092970;28;20058;-78
2021/07/10 03:13:14;;;;;;;7.88;6.55;;;23.00;93.30;;;;;;5097634;28;20089;-78
2021/07/10 03:15:41;;;;;;;9.68;7.75;;;23.00;93.40;;;;;;5097644;28;20462;-78
2021/07/10 03:18:06;;;;;;;9.05;7.68;;;23.20;93.60;;;;;;5097949;28;20094;-79
2021/07/10 03:20:32;;;;;;;8.85;7.50;;;23.20;93.90;;;;;;5098061;28;20028;-78
2021/07/10 03:22:58;;;;;;;9.30;7.95;;;23.30;94.10;;;;;;5096456;28;20036;-78
2021/07/10 03:25:24;;;;;;;10.27;8.52;;;23.40;94.30;;;;;;5097306;28;20020;-78
2021/07/10 03:27:52;;;;;;;9.57;8.35;;;23.50;94.50;;;;;;5097323;28;20028;-78
2021/07/10 03:30:20;;;;;;;10.90;8.30;;;23.50;94.60;;;;;;5095567;28;20024;-78
2021/07/10 03:32:47;;;;;;;9.07;7.50;;;23.60;94.70;;;;;;5097595;28;20027;-78
2021/07/10 03:35:15;;;;;;;7.55;6.85;;;23.70;94.50;;;;;;5096195;28;20020;-78
2021/07/10 03:37:41;;;;;;;11.63;7.50;;;23.70;94.20;;;;;;5097634;28;20016;-78
2021/07/10 03:40:10;;;;;;;9.88;7.18;;;23.80;94.00;;;;;;5096141;28;20027;-77
2021/07/10 03:42:36;;;;;;;10.85;7.50;;;23.80;93.50;;;;;;5095929;28;20107;-78
2021/07/10 03:45:07;;;;;;;12.10;6.60;;;23.90;93.30;;;;;;5097042;28;20037;-78
2021/07/10 03:47:33;;;;;;;7.38;6.50;;;23.80;93.00;;;;;;5097031;28;20034;-78
2021/07/10 03:49:59;;;;;;;10.35;7.10;;;23.90;92.90;;;;;;5078540;28;20555;-77
2021/07/10 03:52:25;;;;;;;9.50;7.22;;;24.00;92.60;;;;;;5096012;28;20024;-78
2021/07/10 03:54:50;;;;;;;8.80;6.82;;;24.00;92.50;;;;;;5096671;28;20074;-78
2021/07/10 03:57:16;;;;;;;8.77;6.90;;;24.10;92.50;;;;;;5095283;28;20390;-77
2021/07/10 03:59:42;;;;;;;11.57;6.70;;;24.10;92.30;;;;;;5096527;28;20035;-77
2021/07/10 04:02:08;;;;;;;8.27;6.78;;;24.10;92.20;;;;;;5096760;28;20028;-78
2021/07/10 04:04:33;;;;;;;9.15;6.57;;;24.10;92.20;;;;;;5096482;28;20035;-78
2021/07/10 04:06:59;;;;;;;7.00;6.30;;;24.20;92.20;;;;;;5096970;28;20456;-78
2021/07/10 04:09:25;;;;;;;8.50;6.20;;;24.20;92.10;;;;;;5096354;28;20118;-78
2021/07/10 04:11:51;;;;;;;10.90;7.30;;;24.30;92.40;;;;;;5078293;28;20051;-78
2021/07/10 04:14:17;;;;;;;7.97;7.03;;;24.30;92.20;;;;;;5095185;28;20031;-78
2021/07/10 04:16:43;;;;;;;8.10;7.30;;;24.30;92.20;;;;;;5096185;28;20028;-77
2021/07/10 04:19:09;;;;;;;9.38;7.20;;;24.40;92.20;;;;;;5095564;28;20382;-78
2021/07/10 04:21:36;;;;;;;8.75;6.75;;;24.40;92.20;;;;;;5096477;28;20139;-78
2021/07/10 04:24:02;;;;;;;7.45;6.75;;;24.40;92.10;;;;;;5094709;28;20031;-78
2021/07/10 04:26:28;;;;;;;7.00;6.28;;;24.40;92.00;;;;;;5094997;28;20061;-78
2021/07/10 04:28:54;;;;;;;7.70;6.90;;;24.50;91.90;;;;;;5096052;28;20032;-78
2021/07/10 04:31:20;;;;;;;8.75;7.30;;;24.50;92.00;;;;;;5095343;28;20039;-78
2021/07/10 04:33:46;;;;;;;8.50;7.05;;;24.50;92.00;;;;;;5094677;28;20016;-78
2021/07/10 04:36:11;;;;;;;7.45;6.72;;;24.60;92.10;;;;;;5095266;28;20021;-78
2021/07/10 04:38:38;;;;;;;7.72;6.93;;;24.70;92.00;;;;;;5077716;28;20118;-78
2021/07/10 04:41:08;;;;;;;6.95;6.25;;;24.70;91.90;;;;;;5094678;28;20028;-78
2021/07/10 04:43:34;;;;;;;7.10;6.40;;;24.80;91.80;;;;;;5091882;28;20028;-78
2021/07/10 04:46:00;;;;;;;9.77;6.95;;;24.80;91.70;;;;;;5095019;28;20100;-78
2021/07/10 04:48:27;;;;;;;7.75;6.50;;;25.00;91.40;;;;;;5095319;28;20062;-78
2021/07/10 04:50:53;;;;;;;7.22;6.13;;;25.00;91.30;;;;;;5095751;28;20474;-78
2021/07/10 04:53:20;;;;;;;10.13;6.68;;;25.10;91.30;;;;;;5094245;28;20031;-78
2021/07/10 04:55:47;;;;;;;7.22;6.50;;;25.20;91.10;;;;;;5095372;28;20031;-78
2021/07/10 04:58:13;;;;;;;7.18;6.15;;;25.20;90.80;;;;;;5095740;28;20027;-78
2021/07/10 05:00:40;;;;;;;7.75;6.13;;;25.30;90.30;;;;;;5094389;28;20024;-78
2021/07/10 05:03:06;;;;;;;6.30;5.63;;;25.40;90.10;;;;;;5095515;28;20105;-78
2021/07/10 05:05:31;;;;;;;6.93;6.22;;;25.40;89.70;;;;;;5093584;28;20075;-77
2021/07/10 05:08:02;;;;;;;6.32;5.70;;;25.50;89.00;;;;;;5093897;28;20024;-78
2021/07/10 05:10:31;;;;;;;9.95;6.13;;;25.60;88.60;;;;;;5094353;28;20170;-78
2021/07/10 05:12:57;;;;;;;7.57;5.68;;;25.60;88.30;;;;;;5095701;28;20020;-78
2021/07/10 05:15:23;;;;;;;6.50;5.80;;;25.60;88.00;;;;;;5094006;28;20055;-78
2021/07/10 05:17:48;;;;;;;7.80;5.80;;;25.60;87.90;;;;;;5095755;28;20028;-78
2021/07/10 05:20:15;;;;;;;8.77;6.03;;;25.70;88.00;;;;;;5093960;28;20027;-78
2021/07/10 05:22:42;;;;;;;7.20;5.18;;;25.80;87.20;;;;;;5075260;28;20032;-78
2021/07/10 05:25:10;;;;;;;7.85;6.00;;;25.80;86.30;;;;;;5074902;28;20028;-78
2021/07/10 05:27:36;;;;;;;10.15;7.20;;;25.80;86.20;;;;;;5074805;28;20028;-78
2021/07/10 05:30:05;;;;;;;8.88;6.15;;;25.90;86.20;;;;;;5075258;28;20455;-78
2021/07/10 05:32:32;;;;;;;6.57;5.90;;;26.00;85.20;;;;;;5073124;28;20024;-77
2021/07/10 05:34:58;;;;;;;7.55;5.90;;;26.10;85.00;;;;;;5069031;28;20107;-77
2021/07/10 05:37:24;;;;;;;6.32;5.72;;;26.10;85.00;;;;;;5074350;28;20028;-77
2021/07/10 05:39:49;;;;;;;7.20;5.65;;;26.20;84.90;;;;;;5081863;28;20032;-77
2021/07/10 05:42:15;;;;;;;6.22;5.63;;;26.30;85.20;;;;;;5091841;28;20032;-77
2021/07/10 05:44:41;;;;;;;8.65;6.28;;;26.30;84.90;;;;;;5105178;28;20046;-77
2021/07/10 05:47:06;;;;;;;6.72;6.05;;;26.30;84.60;;;;;;5092170;28;20024;-76
2021/07/10 15:52:37;;;;;;;114.07;25.95;;;32.20;54.50;;;;;;5070741;28;20376;-77
2021/07/10 15:55:05;;;;;;;377.15;117.90;;;31.70;56.40;;;;;;5070932;28;20028;-87
2021/07/10 15:57:31;;;;;;;270.63;83.73;;;30.60;74.80;;;;;;5070647;28;20028;-85
2021/07/10 15:59:57;;;;;;;31.88;15.77;;;29.70;88.30;;;;;;5069048;28;20391;-82
2021/07/10 16:02:22;;;;;;;42.05;22.98;;;29.00;90.00;;;;;;5065598;28;20541;-81
2021/07/10 16:04:48;;;;;;;11.00;8.10;;;28.40;91.20;;;;;;5070589;28;20028;-80
2021/07/10 16:07:14;;;;;;;8.15;7.20;;;27.70;92.20;;;;;;5069167;28;20493;-80
2021/07/10 16:09:39;;;;;;;7.47;6.75;;;27.10;91.80;;;;;;5069158;28;20024;-80
2021/07/10 16:12:05;;;;;;;10.75;6.90;;;26.80;92.70;;;;;;5070348;28;20067;-80
2021/07/10 16:14:31;;;;;;;9.02;6.82;;;26.80;93.40;;;;;;5066742;28;20364;-81
2021/07/10 16:16:57;;;;;;;46.78;19.40;;;26.90;93.20;;;;;;5050379;28;20029;-80
2021/07/10 16:19:22;;;;;;;48.55;16.02;;;27.00;92.90;;;;;;5048958;28;20033;-80
2021/07/10 16:21:48;;;;;;;12.05;7.32;;;27.20;93.70;;;;;;5050298;28;20033;-81
2021/07/10 16:24:13;;;;;;;7.35;6.60;;;27.30;91.10;;;;;;5050055;28;20087;-78
2021/07/10 16:26:47;;;;;;;10.23;6.40;;;27.40;91.20;;;;;;5050179;28;20021;-85
2021/07/10 16:29:12;;;;;;;7.55;5.90;;;27.70;91.80;;;;;;5058635;28;20020;-86
2021/07/10 16:31:38;;;;;;;14.43;7.05;;;27.90;91.40;;;;;;5050262;28;20367;-84
2021/07/10 16:34:04;;;;;;;7.88;6.95;;;28.10;90.80;;;;;;5050217;28;20029;-90
2021/07/10 16:36:29;;;;;;;8.75;6.10;;;28.20;90.00;;;;;;5049979;28;20026;-81
2021/07/10 16:38:56;;;;;;;8.38;7.30;;;28.40;90.40;;;;;;5050050;28;20021;-81
2021/07/10 16:41:22;;;;;;;63.45;39.03;;;28.50;89.30;;;;;;5049965;28;20036;-82
2021/07/10 16:43:48;;;;;;;19.25;13.50;;;28.60;88.20;;;;;;5056642;28;20013;-82
2021/07/10 16:46:14;;;;;;;11.77;9.43;;;28.70;87.10;;;;;;5058463;28;20021;-81
2021/07/10 16:48:39;;;;;;;10.63;7.82;;;28.80;89.30;;;;;;5069528;28;20032;-83
2021/07/10 16:51:05;;;;;;;16.60;9.00;;;28.80;85.60;;;;;;5067807;28;20087;-82
2021/07/10 16:53:32;;;;;;;8.98;7.47;;;28.80;84.10;;;;;;5069491;28;20074;-83
2021/07/10 16:55:58;;;;;;;9.20;5.95;;;28.80;84.90;;;;;;5068074;28;20119;-82
2021/07/10 16:58:24;;;;;;;8.18;5.68;;;28.80;84.20;;;;;;5068162;28;20118;-83
2021/07/10 17:00:50;;;;;;;7.50;6.03;;;28.80;83.30;;;;;;5069236;28;20052;-80
2021/07/10 17:03:15;;;;;;;7.78;5.43;;;28.80;81.70;;;;;;5058537;28;20025;-82
2021/07/10 17:05:42;;;;;;;13.57;7.47;;;28.80;83.50;;;;;;5054820;28;20025;-81
2021/07/10 17:08:12;;;;;;;10.38;8.82;;;28.80;82.20;;;;;;5055939;28;20025;-83
2021/07/10 17:10:39;;;;;;;9.32;7.70;;;28.80;80.50;;;;;;5054661;28;20545;-81
2021/07/10 17:13:04;;;;;;;42.38;30.67;;;28.80;82.20;;;;;;5055834;28;20071;-81
2021/07/10 17:15:30;;;;;;;67.55;51.70;;;28.80;85.40;;;;;;5055802;28;20032;-82
2021/07/10 17:17:56;;;;;;;36.70;26.23;;;28.80;84.10;;;;;;5055855;28;20031;-81
2021/07/10 17:20:23;;;;;;;17.80;13.07;;;28.70;81.20;;;;;;5055723;28;20021;-81
2021/07/10 18:16:39;;;;;;;7.55;6.65;;;27.40;84.20;;;;;;5090438;27;20367;-84
2021/07/10 18:19:05;;;;;;;7.57;6.70;;;27.40;84.80;;;;;;5102216;28;20100;-86
2021/07/10 18:21:31;;;;;;;7.35;6.53;;;27.40;85.30;;;;;;5109483;28;20024;-85
2021/07/10 18:23:57;;;;;;;6.90;6.22;;;27.40;85.80;;;;;;5109447;28;20023;-86
2021/07/10 18:26:24;;;;;;;6.80;6.10;;;27.40;85.50;;;;;;5110576;28;20020;-84
2021/07/10 18:28:51;;;;;;;8.45;6.10;;;27.50;87.30;;;;;;5110207;28;20111;-83
2021/07/10 18:31:17;;;;;;;6.38;5.78;;;27.50;87.80;;;;;;5096285;28;20270;-84
2021/07/10 18:33:43;;;;;;;9.63;6.18;;;27.50;87.00;;;;;;5090136;28;20036;-84
2021/07/10 18:36:09;;;;;;;8.45;6.35;;;27.50;86.50;;;;;;5110007;28;20055;-87
2021/07/10 18:38:35;;;;;;;10.98;9.68;;;27.60;84.80;;;;;;5077663;28;20061;-81
2021/07/10 18:41:01;;;;;;;9.50;7.15;;;27.60;83.90;;;;;;5071591;28;20028;-81
2021/07/10 18:43:27;;;;;;;12.23;7.13;;;27.60;84.70;;;;;;5085512;28;20020;-81
2021/07/10 18:45:54;;;;;;;8.60;7.00;;;27.70;82.60;;;;;;5089961;28;20035;-82
2021/07/10 18:48:20;;;;;;;8.50;6.97;;;27.70;83.20;;;;;;5089729;28;20100;-81
2021/07/10 18:50:46;;;;;;;14.30;8.07;;;27.70;82.60;;;;;;5096978;28;20155;-83
2021/07/10 18:53:11;;;;;;;9.93;7.80;;;27.70;82.20;;;;;;5079426;28;20028;-84
2021/07/10 18:55:37;;;;;;;9.05;8.05;;;27.70;82.10;;;;;;5088368;28;20020;-83
2021/07/10 18:58:09;;;;;;;10.18;8.05;;;27.80;82.30;;;;;;5088685;28;20488;-83
2021/07/10 19:00:35;;;;;;;13.73;10.20;;;27.80;83.20;;;;;;5088519;28;20032;-82
2021/07/10 19:03:01;;;;;;;24.23;14.52;;;27.70;83.10;;;;;;5087280;28;20043;-84
2021/07/10 19:05:27;;;;;;;14.48;10.60;;;27.70;84.50;;;;;;5087922;28;20036;-84
2021/07/10 19:07:53;;;;;;;17.05;10.32;;;27.70;85.70;;;;;;5086247;28;20028;-82
2021/07/10 19:10:20;;;;;;;14.38;9.02;;;27.80;86.20;;;;;;5073105;28;20087;-79
2021/07/10 19:12:46;;;;;;;14.23;8.48;;;27.70;85.30;;;;;;5083809;28;20122;-79
2021/07/10 19:15:14;;;;;;;11.13;7.43;;;27.70;85.60;;;;;;5078338;28;20082;-79
2021/07/10 19:17:44;;;;;;;10.02;7.00;;;27.60;85.80;;;;;;5072120;28;20021;-79
2021/07/10 19:20:15;;;;;;;7.68;6.82;;;27.60;86.00;;;;;;5089013;28;20027;-79
2021/07/10 19:22:41;;;;;;;7.30;6.57;;;27.60;86.20;;;;;;5088647;28;20016;-80
2021/07/10 19:25:11;;;;;;;16.13;11.38;;;27.50;86.00;;;;;;5090067;28;20035;-82
2021/07/10 19:27:37;;;;;;;10.65;8.00;;;27.50;86.10;;;;;;5075003;28;20123;-83
2021/07/10 19:30:05;;;;;;;7.45;6.30;;;27.50;85.70;;;;;;5075127;28;20029;-82
2021/07/10 19:32:31;;;;;;;9.43;7.00;;;27.40;85.50;;;;;;5076553;28;20020;-83
2021/07/10 19:34:57;;;;;;;8.95;6.63;;;27.30;85.80;;;;;;5075447;28;20412;-83
2021/07/10 19:37:23;;;;;;;6.85;6.15;;;27.20;86.50;;;;;;5074986;28;20167;-82
2021/07/10 19:39:48;;;;;;;7.18;6.47;;;27.20;86.50;;;;;;5076313;28;20127;-82
2021/07/10 19:42:14;;;;;;;6.90;6.20;;;27.10;87.00;;;;;;5074420;28;20044;-82
2021/07/10 19:44:40;;;;;;;8.07;6.00;;;27.00;87.20;;;;;;5076194;28;20105;-82
2021/07/10 19:47:06;;;;;;;7.30;6.20;;;27.00;86.70;;;;;;5076252;28;20024;-82
2021/07/10 19:49:32;;;;;;;7.35;5.63;;;27.00;85.90;;;;;;5071150;28;20029;-82
2021/07/10 19:51:58;;;;;;;6.75;5.95;;;26.90;86.20;;;;;;5067076;28;20119;-82
2021/07/10 19:54:24;;;;;;;8.30;6.30;;;26.90;86.70;;;;;;5074589;28;20025;-82
2021/07/10 19:56:50;;;;;;;8.30;6.40;;;26.90;87.70;;;;;;5075966;28;20020;-82
2021/07/10 19:59:16;;;;;;;6.93;6.22;;;26.80;88.60;;;;;;5076007;28;20081;-82
2021/07/10 20:01:44;;;;;;;6.82;6.10;;;26.80;88.70;;;;;;5065998;28;20474;-82
2021/07/10 20:04:16;;;;;;;9.60;6.50;;;26.70;89.10;;;;;;5071992;28;20028;-82
2021/07/10 20:06:44;;;;;;;8.50;6.10;;;26.70;89.50;;;;;;5074530;28;20390;-82
2021/07/10 20:09:10;;;;;;;7.03;6.28;;;26.60;89.70;;;;;;5074474;28;20527;-82
2021/07/10 20:11:36;;;;;;;6.97;5.75;;;26.50;90.10;;;;;;5075728;28;20027;-82
2021/07/10 20:14:02;;;;;;;11.45;6.30;;;26.50;90.20;;;;;;5072424;28;20021;-82
2021/07/10 20:16:28;;;;;;;6.60;6.00;;;26.40;90.20;;;;;;5073922;28;20517;-82
2021/07/10 20:18:53;;;;;;;6.60;5.90;;;26.40;89.80;;;;;;5075430;28;20052;-82
2021/07/10 20:21:19;;;;;;;9.25;5.80;;;26.30;90.00;;;;;;5075621;28;20450;-81
2021/07/10 20:23:45;;;;;;;6.82;6.07;;;26.30;90.10;;;;;;5073613;28;20115;-81
2021/07/10 20:26:10;;;;;;;6.70;5.88;;;26.30;90.10;;;;;;5075534;28;20409;-81
2021/07/10 20:28:36;;;;;;;10.00;5.90;;;26.30;90.40;;;;;;5073963;28;20439;-82
2021/07/10 20:31:02;;;;;;;6.78;5.55;;;26.20;90.30;;;;;;5075156;28;20033;-81
2021/07/10 20:33:29;;;;;;;6.30;5.70;;;26.20;90.60;;;;;;5073393;28;20099;-81
2021/07/10 20:35:57;;;;;;;7.22;6.00;;;26.20;90.60;;;;;;5075342;28;20017;-81
2021/07/10 20:38:23;;;;;;;6.72;6.13;;;26.10;90.70;;;;;;5072833;28;20556;-81
2021/07/10 20:40:50;;;;;;;9.43;5.70;;;26.00;90.60;;;;;;5073704;28;20028;-81
2021/07/10 20:43:15;;;;;;;7.82;6.13;;;26.00;90.70;;;;;;5066176;28;20083;-81
2021/07/10 20:45:41;;;;;;;7.13;6.07;;;26.00;90.70;;;;;;5055187;28;20491;-81
2021/07/10 20:48:07;;;;;;;6.32;5.68;;;25.90;90.70;;;;;;5055114;28;20504;-82
2021/07/10 20:50:33;;;;;;;7.85;6.68;;;25.90;90.90;;;;;;5053455;28;20061;-81
2021/07/10 20:52:59;;;;;;;7.45;5.97;;;25.90;91.00;;;;;;5058092;28;20051;-82
2021/07/10 20:55:26;;;;;;;7.57;6.10;;;25.80;91.00;;;;;;5074588;28;20020;-81
2021/07/10 20:57:52;;;;;;;9.65;6.53;;;25.80;91.10;;;;;;5074688;28;20032;-81
2021/07/10 21:00:22;;;;;;;9.52;7.18;;;25.70;91.10;;;;;;5074670;28;20020;-81
2021/07/10 21:02:47;;;;;;;;;;;25.70;91.30;;;;;;5073396;28;20028;-81
2021/07/10 21:05:14;;;;;;;7.95;5.57;;;25.60;91.20;;;;;;5054796;28;19905;-81
2021/07/10 21:07:40;;;;;;;9.57;6.18;;;25.50;91.60;;;;;;5070071;28;20024;-81
2021/07/10 21:10:09;;;;;;;8.30;6.20;;;25.50;91.60;;;;;;5070009;28;20025;-81
2021/07/10 21:12:36;;;;;;;7.78;6.43;;;25.50;91.80;;;;;;5069239;28;20027;-81
2021/07/10 21:15:04;;;;;;;8.40;6.68;;;25.50;91.80;;;;;;5071854;28;20048;-81
2021/07/10 21:17:30;;;;;;;7.60;6.80;;;25.40;91.80;;;;;;5073137;28;20522;-81
2021/07/10 21:19:56;;;;;;;9.70;6.65;;;25.40;92.00;;;;;;5072883;28;20066;-81
2021/07/10 21:22:22;;;;;;;12.23;7.55;;;25.40;92.30;;;;;;5073067;28;20024;-81
2021/07/10 21:24:47;;;;;;;7.65;6.85;;;25.40;92.20;;;;;;5059955;28;20125;-81
2021/07/10 21:27:13;;;;;;;9.02;7.22;;;25.30;92.20;;;;;;5054520;28;20031;-81
2021/07/10 21:29:39;;;;;;;7.93;6.93;;;25.30;92.40;;;;;;5052862;28;20035;-81
2021/07/10 21:32:05;;;;;;;8.18;7.32;;;25.40;92.50;;;;;;5053910;28;20049;-82
2021/07/10 21:34:30;;;;;;;9.30;7.43;;;25.40;92.40;;;;;;5062683;28;20514;-82
2021/07/10 21:36:56;;;;;;;8.95;7.68;;;25.40;92.60;;;;;;5072851;28;20087;-81
2021/07/10 21:39:22;;;;;;;10.57;7.75;;;25.50;92.60;;;;;;5072823;28;20159;-82
2021/07/10 21:41:47;;;;;;;8.80;7.38;;;25.50;92.40;;;;;;5072260;28;20024;-81
2021/07/10 21:44:13;;;;;;;13.45;7.90;;;25.60;92.40;;;;;;5066880;28;20147;-81
2021/07/10 21:46:39;;;;;;;8.60;7.55;;;25.60;92.50;;;;;;5052735;28;20375;-82
2021/07/10 21:49:06;;;;;;;8.38;7.25;;;25.60;92.40;;;;;;5053844;28;20399;-82
2021/07/10 21:51:32;;;;;;;8.02;6.63;;;25.50;92.60;;;;;;5053919;28;20032;-81
2021/07/10 21:53:58;;;;;;;8.15;6.78;;;25.50;92.80;;;;;;5054492;28;20039;-81
2021/07/10 21:56:24;;;;;;;7.07;6.47;;;25.50;92.80;;;;;;5073720;28;20028;-81
2021/07/10 21:58:50;;;;;;;7.80;7.00;;;25.40;92.90;;;;;;5074028;28;20088;-81
2021/07/10 22:01:28;;;;;;;7.82;6.95;;;25.50;92.70;;;;;;5073809;28;20074;-81
2021/07/10 22:03:55;;;;;;;8.88;7.28;;;25.40;92.80;;;;;;5072956;28;20020;-82
2021/07/10 22:06:21;;;;;;;9.02;6.93;;;25.40;92.90;;;;;;5053719;28;20108;-81
2021/07/10 22:08:47;;;;;;;8.40;7.50;;;25.30;93.00;;;;;;5053572;28;20414;-81
2021/07/10 22:11:13;;;;;;;8.50;7.35;;;25.30;93.10;;;;;;5053563;28;20082;-81
2021/07/10 22:13:39;;;;;;;7.80;7.00;;;25.30;93.00;;;;;;5052384;28;20364;-81
2021/07/10 22:16:05;;;;;;;8.63;7.35;;;25.20;93.20;;;;;;5069876;28;20052;-81
2021/07/10 22:18:31;;;;;;;10.18;7.15;;;25.20;93.30;;;;;;5072364;28;20158;-81
2021/07/10 22:20:56;;;;;;;8.32;7.53;;;25.20;93.60;;;;;;5073599;28;20035;-81
2021/07/10 22:23:22;;;;;;;8.43;7.50;;;25.10;93.30;;;;;;5073689;28;20035;-81
2021/07/10 22:25:48;;;;;;;9.40;7.55;;;25.10;93.30;;;;;;5060213;28;20068;-81
2021/07/10 22:28:15;;;;;;;8.50;7.60;;;25.00;93.40;;;;;;5052182;28;20029;-81
2021/07/10 22:30:42;;;;;;;8.48;7.68;;;25.00;93.80;;;;;;5053795;28;20025;-81
2021/07/10 22:33:08;;;;;;;13.02;7.22;;;25.00;93.80;;;;;;5052286;28;20047;-81
2021/07/10 22:35:34;;;;;;;11.65;8.20;;;25.00;93.80;;;;;;5061245;28;20025;-81
2021/07/10 22:37:59;;;;;;;9.27;7.65;;;25.00;93.70;;;;;;5073527;28;20025;-81
2021/07/10 22:40:25;;;;;;;9.18;8.27;;;24.90;93.80;;;;;;5072035;28;20028;-82
2021/07/10 22:42:51;;;;;;;16.70;8.32;;;24.90;93.80;;;;;;5073360;28;20028;-82
2021/07/10 22:45:17;;;;;;;11.52;8.57;;;24.80;93.80;;;;;;5067516;28;20031;-82
2021/07/10 22:47:42;;;;;;;9.52;8.43;;;24.80;93.90;;;;;;5064577;28;20074;-81
2021/07/10 22:50:08;;;;;;;9.45;8.00;;;24.70;94.10;;;;;;5072118;28;20085;-81
2021/07/10 22:52:34;;;;;;;9.80;8.35;;;24.70;94.40;;;;;;5071952;28;20098;-82
2021/07/10 22:55:00;;;;;;;9.05;8.07;;;24.70;94.40;;;;;;5073135;28;20095;-82
2021/07/10 22:57:26;;;;;;;9.32;8.27;;;24.70;94.30;;;;;;5063258;28;20460;-81
2021/07/10 22:59:51;;;;;;;8.65;7.75;;;24.60;94.30;;;;;;5053348;28;20025;-81
2021/07/10 23:02:17;;;;;;;11.40;8.15;;;24.60;94.40;;;;;;5053733;28;20029;-81
2021/07/10 23:04:43;;;;;;;10.40;8.10;;;24.70;94.50;;;;;;5057044;28;20029;-82
2021/07/10 23:07:08;;;;;;;10.07;8.45;;;24.70;94.50;;;;;;5056500;28;20048;-81
2021/07/10 23:09:34;;;;;;;11.18;8.38;;;24.70;94.60;;;;;;5055536;28;20033;-82
2021/07/10 23:12:00;;;;;;;10.43;8.77;;;24.70;94.70;;;;;;5055508;28;20063;-82
2021/07/10 23:14:25;;;;;;;15.77;9.30;;;24.80;94.80;;;;;;5056541;28;20063;-82
2021/07/10 23:16:51;;;;;;;11.15;9.30;;;24.80;94.80;;;;;;5055479;28;20083;-82
2021/07/10 23:19:17;;;;;;;11.15;9.50;;;24.80;94.80;;;;;;5056576;28;20100;-82
2021/07/10 23:21:42;;;;;;;10.85;9.48;;;24.80;94.80;;;;;;5056566;28;20447;-81
2021/07/10 23:24:08;;;;;;;12.40;10.15;;;24.90;94.80;;;;;;5055271;28;20021;-81
2021/07/10 23:26:34;;;;;;;12.00;9.73;;;24.80;94.80;;;;;;5055229;28;20025;-82
2021/07/10 23:28:59;;;;;;;10.82;9.73;;;24.80;94.90;;;;;;5071705;28;20077;-81
2021/07/10 23:31:27;;;;;;;12.88;9.88;;;24.80;95.00;;;;;;5057166;28;20033;-81
2021/07/10 23:33:53;;;;;;;10.45;9.30;;;24.80;95.00;;;;;;5056473;28;20021;-81